Grant, CO (80448)

1:13 AM MDT on March 29, 2015 (GMT -0600)
Woodmoor | | Change Station
CLOSE
Current Station
Personal Weather Station
Location: Breckenridge, CO
Elevation: 10591 ft
Nearby Weather Stations

Elev 10591 ft 39.47 °N, 106.02 °W | Updated 5 minutes ago

Mostly Cloudy
Mostly Cloudy
31.8 °F
Feels Like 32 °F
N
3.0
Wind Variable Wind from NNE
Gusts 4.0 mph

Today
High -- | Low -- °F
--% Chance of Precip.
Yesterday
High -- | Low -- °F
Precip. -- in
6:52 AM 7:23 PM
Waxing Gibbous, 69% visible
Pressure 30.37 in
Visibility 10.0 miles
Clouds Scattered Clouds 2900 ft
Mostly Cloudy 6000 ft
Overcast 8500 ft
Windchill 32 °F
Dew Point 30 °F
Humidity 91%
Rainfall 0.00 in
Snow Depth Not available.
UV 0 out of 12
Pollen 11.10 out of 12
Air Quality Not available.
Flu Activity Not available.
METAR K0CO 290655Z AUTO 29028G50KT 10SM SCT029 BKN060 OVC085 M03/M06 A3037 RMK AO2

More Conditions Fewer Conditions

Pressure 30.37 in
Visibility 10.0 miles
Clouds Scattered Clouds 2900 ft
Mostly Cloudy 6000 ft
Overcast 8500 ft
Windchill 32 °F
Dew Point 30 °F
Humidity 91%
Rainfall 0.00 in
Snow Depth Not available.
UV 0 out of 12
Pollen 11.10 out of 12
Air Quality Not available.
Flu Activity Not available.
METAR K0CO 290655Z AUTO 29028G50KT 10SM SCT029 BKN060 OVC085 M03/M06 A3037 RMK AO2

More Conditions Fewer Conditions

Nowcast | as of 10:43 PM MDT on March 28, 2015

Isolated light rain and snow showers will move across Summit and grand counties into Clear Creek and park counties through 2 am. The snow level will be around 10 thousand feet. Wind gusts to 40 mph are possible with some of the showers.

×

10-Day Weather Forecast

Almanac

Astronomy

Mar. 29, 2015 Rise Set
Actual Time
Civil Twilight
Nautical Twilight
Astronomical Twilight
Moon
Length of Visible Light
Length of Day
Tomorrow will be .
, % of the Moon is Illuminated

Today's Extremes

State Highs State Lows

Community

WunderPhotos

Upload Photos

1,809,187 photos uploaded!

WunderBlogs® & News

Nearby

Air Quality

  Air Quality AQ Index Pollutant
Not available.

Snow Depth

Station Depth Elevation

Earthquake Activity

City Distance Mag. Time & Date
Minimum magnitude displayed is 2.5.

Coastal Water Temperatures

Place Temperature

Stations

Nearby Weather Stations

Station Location Temp. Windchill Dew Point Humidity Wind Precip. Elev Updated Type